createdAt,value
2022-11-29T00:01:33.179Z,100.00
2022-11-29T00:04:00.050Z,100.00
2022-11-29T00:06:30.020Z,100.00
2022-11-29T00:08:58.874Z,100.00
2022-11-29T00:11:51.091Z,100.00
2022-11-29T00:14:19.786Z,100.00
2022-11-29T00:16:59.230Z,100.00
2022-11-29T00:19:25.965Z,100.00
2022-11-29T00:21:52.454Z,100.00
2022-11-29T00:24:19.023Z,100.00
2022-11-29T00:26:45.777Z,100.00
2022-11-29T00:29:13.141Z,100.00
2022-11-29T00:31:41.110Z,100.00
2022-11-29T00:34:08.062Z,100.00
2022-11-29T00:36:35.574Z,100.00
2022-11-29T00:39:04.125Z,100.00
2022-11-29T00:41:31.161Z,100.00
2022-11-29T00:43:57.775Z,100.00
2022-11-29T00:46:25.296Z,100.00
2022-11-29T00:48:51.867Z,100.00
2022-11-29T00:51:18.512Z,100.00
2022-11-29T00:53:45.380Z,100.00
2022-11-29T00:56:12.296Z,100.00
2022-11-29T00:58:38.978Z,100.00
2022-11-29T01:01:06.338Z,100.00
2022-11-29T01:03:33.073Z,100.00
2022-11-29T01:06:06.020Z,100.00
2022-11-29T01:08:32.695Z,100.00
2022-11-29T01:11:03.208Z,100.00
2022-11-29T01:13:29.678Z,100.00
2022-11-29T01:15:58.153Z,100.00
2022-11-29T01:18:25.123Z,100.00
2022-11-29T01:21:00.274Z,100.00
2022-11-29T01:23:27.739Z,100.00
2022-11-29T01:26:00.355Z,100.00
2022-11-29T01:28:28.198Z,100.00
2022-11-29T01:30:55.644Z,100.00
2022-11-29T01:33:24.269Z,100.00
2022-11-29T01:35:53.605Z,100.00
2022-11-29T01:38:21.837Z,100.00
2022-11-29T01:41:18.358Z,100.00
2022-11-29T01:44:14.057Z,100.00
2022-11-29T01:46:47.878Z,100.00
2022-11-29T01:49:32.473Z,100.00
2022-11-29T01:52:14.437Z,100.00
2022-11-29T01:54:53.128Z,100.00
2022-11-29T01:57:21.988Z,100.00
2022-11-29T01:59:56.216Z,100.00
2022-11-29T02:02:36.766Z,100.00
2022-11-29T02:05:04.649Z,100.00
2022-11-29T02:07:31.302Z,100.00
2022-11-29T02:09:57.893Z,100.00
2022-11-29T02:12:48.452Z,100.00
2022-11-29T02:15:22.495Z,100.00
2022-11-29T02:18:07.616Z,100.00
2022-11-29T02:20:59.164Z,100.00
2022-11-29T02:23:25.577Z,100.00
2022-11-29T02:26:18.883Z,100.00
2022-11-29T02:29:07.681Z,100.00
2022-11-29T02:32:11.323Z,100.00
2022-11-29T02:34:53.528Z,100.00
2022-11-29T02:37:38.272Z,100.00
2022-11-29T02:40:28.360Z,100.00
2022-11-29T02:43:14.809Z,100.00
2022-11-29T02:45:53.568Z,100.00
2022-11-29T02:48:54.298Z,100.00
2022-11-29T02:51:44.023Z,100.00
2022-11-29T02:54:37.734Z,100.00
2022-11-29T02:57:23.879Z,100.00
2022-11-29T03:00:02.445Z,100.00
2022-11-29T03:02:51.051Z,100.00
2022-11-29T03:05:30.326Z,100.00
2022-11-29T03:08:19.752Z,100.00
2022-11-29T03:11:18.412Z,100.00
2022-11-29T03:13:56.480Z,100.00
2022-11-29T03:16:42.572Z,100.00
2022-11-29T03:19:31.014Z,100.00
2022-11-29T03:22:06.536Z,100.00
2022-11-29T03:24:45.931Z,100.00
2022-11-29T03:27:23.055Z,100.00
2022-11-29T03:29:56.878Z,100.00
2022-11-29T03:32:29.018Z,100.00
2022-11-29T03:34:58.385Z,100.00
2022-11-29T03:37:53.106Z,100.00
2022-11-29T03:40:25.573Z,100.00
2022-11-29T03:43:09.036Z,100.00
2022-11-29T03:45:53.675Z,100.00
2022-11-29T03:48:41.048Z,100.00
2022-11-29T03:51:12.104Z,100.00
2022-11-29T03:54:02.850Z,100.00
2022-11-29T03:56:38.519Z,100.00
2022-11-29T03:59:24.230Z,100.00
2022-11-29T04:02:09.319Z,100.00
2022-11-29T04:05:11.269Z,100.00
2022-11-29T04:08:01.092Z,100.00
2022-11-29T04:11:01.455Z,100.00
2022-11-29T04:13:40.099Z,100.00
2022-11-29T04:16:39.847Z,100.00
2022-11-29T04:19:29.180Z,100.00
2022-11-29T04:21:58.313Z,100.00
2022-11-29T04:24:52.659Z,100.00
2022-11-29T04:27:37.962Z,100.00
2022-11-29T04:30:04.259Z,100.00
2022-11-29T04:32:49.312Z,100.00
2022-11-29T04:35:38.824Z,100.00
2022-11-29T04:38:29.388Z,100.00
2022-11-29T04:41:40.811Z,100.00
2022-11-29T04:44:45.054Z,100.00
2022-11-29T04:47:23.885Z,100.00
2022-11-29T04:50:08.796Z,100.00
2022-11-29T04:52:49.321Z,100.00
2022-11-29T04:55:35.392Z,100.00
2022-11-29T04:58:43.976Z,100.00
2022-11-29T05:01:22.261Z,100.00
2022-11-29T05:04:04.958Z,100.00
2022-11-29T05:07:11.735Z,100.00
2022-11-29T05:10:10.129Z,100.00
2022-11-29T05:12:55.586Z,100.00
2022-11-29T05:15:49.812Z,100.00
2022-11-29T05:18:53.746Z,100.00
2022-11-29T05:21:48.127Z,100.00
2022-11-29T05:24:34.262Z,100.00
2022-11-29T05:27:09.764Z,100.00
2022-11-29T05:29:46.803Z,100.00
2022-11-29T05:32:32.565Z,100.00
2022-11-29T05:35:28.915Z,100.00
2022-11-29T05:38:06.092Z,100.00
2022-11-29T05:41:13.029Z,100.00
2022-11-29T05:44:13.739Z,100.00
2022-11-29T05:46:55.740Z,100.00
2022-11-29T05:49:49.557Z,100.00
2022-11-29T05:52:25.054Z,100.00
2022-11-29T05:55:10.068Z,100.00
2022-11-29T05:57:47.180Z,100.00
2022-11-29T06:00:16.757Z,100.00
2022-11-29T06:03:13.680Z,100.00
2022-11-29T06:05:49.868Z,100.00
2022-11-29T06:08:25.541Z,100.00
2022-11-29T06:11:29.605Z,100.00
2022-11-29T06:14:25.929Z,100.00
2022-11-29T06:17:01.735Z,100.00
2022-11-29T06:19:56.720Z,100.00
2022-11-29T06:22:50.337Z,100.00
2022-11-29T06:26:03.998Z,100.00
2022-11-29T06:28:44.000Z,100.00
2022-11-29T06:31:31.789Z,100.00
2022-11-29T06:34:10.330Z,100.00
2022-11-29T06:36:48.335Z,100.00
2022-11-29T06:39:14.960Z,100.00
2022-11-29T06:41:41.308Z,100.00
2022-11-29T06:44:08.461Z,100.00
2022-11-29T06:46:47.043Z,100.00
2022-11-29T06:49:23.933Z,100.00
2022-11-29T06:52:18.005Z,100.00
2022-11-29T06:55:08.862Z,100.00
2022-11-29T06:57:59.727Z,100.00
2022-11-29T07:00:31.984Z,100.00
2022-11-29T07:03:43.618Z,100.00
2022-11-29T07:06:25.342Z,100.00
2022-11-29T07:08:56.472Z,100.00
2022-11-29T07:11:23.181Z,100.00
2022-11-29T07:13:49.771Z,100.00
2022-11-29T07:16:22.692Z,100.00
2022-11-29T07:19:15.071Z,100.00
2022-11-29T07:21:55.894Z,100.00
2022-11-29T07:24:33.030Z,100.00
2022-11-29T07:27:08.507Z,100.00
2022-11-29T07:29:46.042Z,100.00
2022-11-29T07:32:34.313Z,100.00
2022-11-29T07:35:28.443Z,100.00
2022-11-29T07:38:10.119Z,100.00
2022-11-29T07:40:49.631Z,100.00
2022-11-29T07:43:37.119Z,100.00
2022-11-29T07:46:03.662Z,100.00
2022-11-29T07:48:30.146Z,100.00
2022-11-29T07:50:56.937Z,100.00
2022-11-29T07:53:24.470Z,100.00
2022-11-29T07:55:51.411Z,100.00
2022-11-29T07:58:18.659Z,100.00
2022-11-29T08:00:45.693Z,100.00
2022-11-29T08:03:12.762Z,100.00
2022-11-29T08:05:40.338Z,100.00
2022-11-29T08:08:06.881Z,100.00
2022-11-29T08:10:34.214Z,100.00
2022-11-29T08:13:00.654Z,100.00
2022-11-29T08:15:27.512Z,100.00
2022-11-29T08:17:53.865Z,100.00
2022-11-29T08:20:20.594Z,100.00
2022-11-29T08:22:57.750Z,100.00
2022-11-29T08:25:25.402Z,100.00
2022-11-29T08:27:52.179Z,100.00
2022-11-29T08:30:22.068Z,100.00
2022-11-29T08:32:51.674Z,100.00
2022-11-29T08:35:20.334Z,100.00
2022-11-29T08:37:46.830Z,100.00
2022-11-29T08:40:13.578Z,100.00
2022-11-29T08:42:39.935Z,100.00
2022-11-29T08:45:07.710Z,100.00
2022-11-29T08:47:37.029Z,100.00
2022-11-29T08:50:12.138Z,100.00
2022-11-29T08:52:59.789Z,100.00
2022-11-29T08:55:29.023Z,100.00
2022-11-29T08:58:02.711Z,100.00
2022-11-29T09:00:29.085Z,100.00
2022-11-29T09:02:55.467Z,100.00
2022-11-29T09:05:21.899Z,100.00
2022-11-29T09:07:48.319Z,100.00
2022-11-29T09:10:14.804Z,100.00
2022-11-29T09:12:41.357Z,100.00
2022-11-29T09:15:11.133Z,100.00
2022-11-29T09:17:37.570Z,100.00
2022-11-29T09:20:05.270Z,100.00
2022-11-29T09:22:31.810Z,100.00
2022-11-29T09:24:58.204Z,100.00
2022-11-29T09:27:24.570Z,100.00
2022-11-29T09:29:50.932Z,100.00
2022-11-29T09:34:44.822Z,100.00
2022-11-29T09:37:11.500Z,100.00
2022-11-29T09:39:38.306Z,100.00
2022-11-29T09:42:12.453Z,100.00
2022-11-29T09:45:01.132Z,100.00
2022-11-29T09:47:49.612Z,100.00
2022-11-29T09:50:36.217Z,100.00
2022-11-29T09:53:15.896Z,100.00
2022-11-29T09:55:48.250Z,100.00
2022-11-29T09:58:21.527Z,100.00
2022-11-29T10:00:56.383Z,100.00
2022-11-29T10:03:29.119Z,100.00
2022-11-29T10:06:06.021Z,100.00
2022-11-29T10:09:01.643Z,100.00
2022-11-29T10:11:34.996Z,100.00
2022-11-29T10:14:11.385Z,100.00
2022-11-29T10:16:50.843Z,100.00
2022-11-29T10:19:42.606Z,100.00
2022-11-29T10:22:25.662Z,100.00
2022-11-29T10:24:57.462Z,100.00
2022-11-29T10:27:25.023Z,100.00
2022-11-29T10:29:51.834Z,100.00
2022-11-29T10:32:21.431Z,100.00
2022-11-29T10:34:49.666Z,100.00
2022-11-29T10:37:19.916Z,100.00
2022-11-29T10:39:54.987Z,100.00
2022-11-29T10:42:42.083Z,100.00
2022-11-29T10:45:19.544Z,100.00
2022-11-29T10:47:48.114Z,100.00
2022-11-29T10:50:21.267Z,100.00
2022-11-29T10:52:47.797Z,100.00
2022-11-29T10:55:16.961Z,100.00
2022-11-29T10:58:29.006Z,100.00
2022-11-29T11:01:09.176Z,100.00
2022-11-29T11:03:39.981Z,100.00
2022-11-29T11:06:11.972Z,100.00
2022-11-29T11:08:42.738Z,100.00
2022-11-29T11:11:09.757Z,100.00
2022-11-29T11:13:37.970Z,100.00
2022-11-29T11:16:17.403Z,100.00
2022-11-29T11:18:45.555Z,100.00
2022-11-29T11:21:15.424Z,100.00
2022-11-29T11:23:44.678Z,100.00
2022-11-29T11:26:14.552Z,100.00
2022-11-29T11:28:49.566Z,100.00
2022-11-29T11:31:25.277Z,100.00
2022-11-29T11:33:51.784Z,100.00
2022-11-29T11:36:21.025Z,100.00
2022-11-29T11:39:18.850Z,100.00
2022-11-29T11:42:04.542Z,100.00
2022-11-29T11:44:48.465Z,100.00
2022-11-29T11:47:28.952Z,100.00
2022-11-29T11:50:04.764Z,100.00
2022-11-29T11:52:44.842Z,100.00
2022-11-29T11:55:21.296Z,100.00
2022-11-29T11:57:58.726Z,100.00
2022-11-29T12:01:03.591Z,100.00
2022-11-29T12:04:08.464Z,100.00
2022-11-29T12:06:44.899Z,100.00
2022-11-29T12:09:25.228Z,100.00
2022-11-29T12:12:06.245Z,100.00
2022-11-29T12:14:56.593Z,100.00
2022-11-29T12:17:32.098Z,99.58
2022-11-29T12:20:13.841Z,100.00
2022-11-29T12:23:14.426Z,99.37
2022-11-29T12:25:52.013Z,100.00
2022-11-29T12:28:21.038Z,99.84
2022-11-29T12:31:05.714Z,99.79
2022-11-29T12:33:39.833Z,100.00
2022-11-29T12:36:12.018Z,100.00
2022-11-29T12:39:12.737Z,100.00
2022-11-29T12:42:02.973Z,100.00
2022-11-29T12:45:12.596Z,100.00
2022-11-29T12:47:52.279Z,100.00
2022-11-29T12:50:22.301Z,99.97
2022-11-29T12:53:44.275Z,100.00
2022-11-29T12:56:27.124Z,100.00
2022-11-29T12:59:17.499Z,100.00
2022-11-29T13:02:08.317Z,100.00
2022-11-29T13:04:51.728Z,100.00
2022-11-29T13:07:37.905Z,100.00
2022-11-29T13:10:38.543Z,100.00
2022-11-29T13:13:29.869Z,100.00
2022-11-29T13:16:20.652Z,100.00
2022-11-29T13:19:05.128Z,100.00
2022-11-29T13:21:37.503Z,100.00
2022-11-29T13:24:09.168Z,100.00
2022-11-29T13:26:38.635Z,100.00
2022-11-29T13:29:07.460Z,100.00
2022-11-29T13:31:34.589Z,100.00
2022-11-29T13:34:14.999Z,100.00
2022-11-29T13:36:54.522Z,100.00
2022-11-29T13:39:48.855Z,100.00
2022-11-29T13:42:37.126Z,100.00
2022-11-29T13:45:15.759Z,99.99
2022-11-29T13:47:57.976Z,100.00
2022-11-29T13:50:41.347Z,100.00
2022-11-29T13:53:18.941Z,100.00
2022-11-29T13:56:00.831Z,100.00
2022-11-29T13:58:33.307Z,100.00
2022-11-29T14:01:09.665Z,100.00
2022-11-29T14:03:57.512Z,100.00
2022-11-29T14:06:40.672Z,100.00
2022-11-29T14:09:21.600Z,100.00
2022-11-29T14:11:56.883Z,100.00
2022-11-29T14:14:33.036Z,100.00
2022-11-29T14:17:02.586Z,100.00
2022-11-29T14:19:36.879Z,100.00
2022-11-29T14:22:05.312Z,100.00
2022-11-29T14:24:38.064Z,100.00
2022-11-29T14:27:10.393Z,100.00
2022-11-29T14:29:55.229Z,100.00
2022-11-29T14:32:35.601Z,100.00
2022-11-29T14:35:11.139Z,100.00
2022-11-29T14:38:04.276Z,100.00
2022-11-29T14:40:36.297Z,100.00
2022-11-29T14:43:14.992Z,100.00
2022-11-29T14:45:41.821Z,100.00
2022-11-29T14:48:27.182Z,100.00
2022-11-29T14:51:19.550Z,100.00
2022-11-29T14:53:49.097Z,100.00
2022-11-29T14:56:35.187Z,100.00
2022-11-29T14:59:39.017Z,100.00
2022-11-29T15:02:28.605Z,100.00
2022-11-29T15:04:57.080Z,100.00
2022-11-29T15:07:33.265Z,100.00
2022-11-29T15:10:02.976Z,100.00
2022-11-29T15:12:37.613Z,100.00
2022-11-29T15:15:53.523Z,100.00
2022-11-29T15:18:40.449Z,100.00
2022-11-29T15:21:34.568Z,100.00
2022-11-29T15:24:13.211Z,100.00
2022-11-29T15:26:54.870Z,100.00
2022-11-29T15:29:21.608Z,100.00
2022-11-29T15:31:57.448Z,100.00
2022-11-29T15:34:26.836Z,100.00
2022-11-29T15:36:53.418Z,100.00
2022-11-29T15:39:45.970Z,100.00
2022-11-29T15:42:15.705Z,100.00
2022-11-29T15:44:47.340Z,100.00
2022-11-29T15:47:25.103Z,100.00
2022-11-29T15:49:53.681Z,100.00
2022-11-29T15:52:35.819Z,100.00
2022-11-29T15:55:06.482Z,100.00
2022-11-29T15:57:38.603Z,100.00
2022-11-29T16:00:07.816Z,100.00
2022-11-29T16:02:38.140Z,100.00
2022-11-29T16:05:18.272Z,100.00
2022-11-29T16:07:47.302Z,100.00
2022-11-29T16:10:20.666Z,100.00
2022-11-29T16:12:56.246Z,100.00
2022-11-29T16:15:36.182Z,100.00
2022-11-29T16:18:12.117Z,100.00
2022-11-29T16:20:39.342Z,100.00
2022-11-29T16:23:15.842Z,100.00
2022-11-29T16:26:02.577Z,100.00
2022-11-29T16:28:34.609Z,100.00
2022-11-29T16:31:01.294Z,100.00
2022-11-29T16:33:28.070Z,100.00
2022-11-29T16:36:15.923Z,100.00
2022-11-29T16:38:53.593Z,100.00
2022-11-29T16:41:31.130Z,100.00
2022-11-29T16:43:58.065Z,100.00
2022-11-29T16:46:26.004Z,100.00
2022-11-29T16:48:54.003Z,100.00
2022-11-29T16:51:37.611Z,100.00
2022-11-29T16:54:24.419Z,100.00
2022-11-29T16:56:52.408Z,100.00
2022-11-29T16:59:26.809Z,100.00
2022-11-29T17:01:55.217Z,100.00
2022-11-29T17:04:24.004Z,100.00
2022-11-29T17:06:53.288Z,100.00
2022-11-29T17:09:29.387Z,100.00
2022-11-29T17:11:56.916Z,100.00
2022-11-29T17:14:23.433Z,100.00
2022-11-29T17:16:50.172Z,100.00
2022-11-29T17:19:16.848Z,100.00
2022-11-29T17:21:43.653Z,100.00
2022-11-29T17:24:13.566Z,100.00
2022-11-29T17:26:41.472Z,100.00
2022-11-29T17:29:09.222Z,100.00
2022-11-29T17:31:35.871Z,100.00
2022-11-29T17:34:02.754Z,100.00
2022-11-29T17:36:29.335Z,100.00
2022-11-29T17:38:55.938Z,100.00
2022-11-29T17:41:24.196Z,100.00
2022-11-29T17:43:52.070Z,100.00
2022-11-29T17:46:27.267Z,100.00
2022-11-29T17:48:54.722Z,100.00
2022-11-29T17:51:50.460Z,100.00
2022-11-29T17:54:10.820Z,100.00
2022-11-29T17:56:37.187Z,100.00
2022-11-29T17:59:04.418Z,100.00
2022-11-29T18:01:33.625Z,100.00
2022-11-29T18:04:02.098Z,100.00
2022-11-29T18:06:33.462Z,100.00
2022-11-29T18:09:01.937Z,100.00
2022-11-29T18:11:31.626Z,100.00
2022-11-29T18:13:59.803Z,100.00
2022-11-29T18:16:31.415Z,100.00
2022-11-29T18:19:06.939Z,100.00
2022-11-29T18:21:34.727Z,100.00
2022-11-29T18:24:02.769Z,100.00
2022-11-29T18:26:30.565Z,100.00
2022-11-29T18:28:57.769Z,100.00
2022-11-29T18:31:28.144Z,100.00
2022-11-29T18:34:00.147Z,100.00
2022-11-29T18:36:32.915Z,100.00
2022-11-29T18:39:11.285Z,100.00
2022-11-29T18:41:38.280Z,100.00
2022-11-29T18:44:09.955Z,100.00
2022-11-29T18:46:38.285Z,100.00
2022-11-29T18:49:07.036Z,100.00
2022-11-29T18:51:34.688Z,100.00
2022-11-29T18:54:01.773Z,100.00
2022-11-29T18:56:30.357Z,100.00
2022-11-29T18:59:16.644Z,100.00
2022-11-29T19:01:45.168Z,100.00
2022-11-29T19:04:14.923Z,100.00
2022-11-29T19:06:42.252Z,100.00
2022-11-29T19:09:16.104Z,100.00
2022-11-29T19:11:42.657Z,100.00
2022-11-29T19:14:11.668Z,100.00
2022-11-29T19:16:40.436Z,100.00
2022-11-29T19:19:06.944Z,100.00
2022-11-29T19:21:34.619Z,100.00
2022-11-29T19:24:03.675Z,100.00
2022-11-29T19:26:31.358Z,100.00
2022-11-29T19:29:00.606Z,100.00
2022-11-29T19:31:28.019Z,100.00
2022-11-29T19:33:55.890Z,100.00
2022-11-29T19:36:30.770Z,100.00
2022-11-29T19:38:59.832Z,100.00
2022-11-29T19:41:37.324Z,100.00
2022-11-29T19:44:06.546Z,100.00
2022-11-29T19:46:41.290Z,100.00
2022-11-29T19:49:08.656Z,100.00
2022-11-29T19:51:35.830Z,100.00
2022-11-29T19:54:05.146Z,100.00
2022-11-29T19:56:32.702Z,100.00
2022-11-29T19:59:02.681Z,100.00
2022-11-29T20:01:39.666Z,100.00
2022-11-29T20:04:07.971Z,100.00
2022-11-29T20:06:35.004Z,100.00
2022-11-29T20:09:02.231Z,100.00
2022-11-29T20:11:29.401Z,100.00
2022-11-29T20:13:59.031Z,100.00
2022-11-29T20:16:26.649Z,100.00
2022-11-29T20:18:53.746Z,100.00
2022-11-29T20:21:25.867Z,100.00
2022-11-29T20:24:04.121Z,100.00
2022-11-29T20:26:32.927Z,100.00
2022-11-29T20:29:00.253Z,100.00
2022-11-29T20:31:26.815Z,100.00
2022-11-29T20:33:56.335Z,100.00
2022-11-29T20:36:45.059Z,100.00
2022-11-29T20:39:28.865Z,100.00
2022-11-29T20:42:14.026Z,100.00
2022-11-29T20:44:51.836Z,100.00
2022-11-29T20:47:24.081Z,100.00
2022-11-29T20:49:51.061Z,100.00
2022-11-29T20:52:42.072Z,100.00
2022-11-29T20:55:08.735Z,100.00
2022-11-29T20:57:38.170Z,100.00
2022-11-29T21:00:11.312Z,100.00
2022-11-29T21:02:38.322Z,100.00
2022-11-29T21:05:05.179Z,100.00
2022-11-29T21:07:31.603Z,100.00
2022-11-29T21:10:01.131Z,100.00
2022-11-29T21:12:29.204Z,100.00
2022-11-29T21:14:55.817Z,100.00
2022-11-29T21:17:22.568Z,100.00
2022-11-29T21:19:49.247Z,100.00
2022-11-29T21:22:34.332Z,100.00
2022-11-29T21:25:43.178Z,100.00
2022-11-29T21:28:14.784Z,100.00
2022-11-29T21:30:42.529Z,100.00
2022-11-29T21:35:47.353Z,100.00
2022-11-29T21:38:20.020Z,100.00
2022-11-29T21:40:46.422Z,100.00
2022-11-29T21:43:12.748Z,100.00
2022-11-29T21:45:39.106Z,100.00
2022-11-29T21:48:25.551Z,100.00
2022-11-29T21:50:51.938Z,100.00
2022-11-29T21:53:18.320Z,100.00
2022-11-29T21:55:44.725Z,100.00
2022-11-29T21:58:11.113Z,100.00
2022-11-29T22:00:37.800Z,100.00
2022-11-29T22:03:04.429Z,100.00
2022-11-29T22:05:30.853Z,100.00
2022-11-29T22:07:57.291Z,100.00
2022-11-29T22:10:23.695Z,100.00
2022-11-29T22:12:52.541Z,100.00
2022-11-29T22:15:24.613Z,100.00
2022-11-29T22:17:51.361Z,100.00
2022-11-29T22:20:17.744Z,100.00
2022-11-29T22:22:45.186Z,100.00
2022-11-29T22:25:11.584Z,100.00
2022-11-29T22:27:38.174Z,100.00
2022-11-29T22:30:05.448Z,100.00
2022-11-29T22:32:31.780Z,100.00
2022-11-29T22:34:58.100Z,100.00
2022-11-29T22:37:24.555Z,100.00
2022-11-29T22:39:50.895Z,100.00
2022-11-29T22:42:17.304Z,100.00
2022-11-29T22:44:44.021Z,100.00
2022-11-29T22:47:10.590Z,100.00
2022-11-29T22:49:36.989Z,100.00
2022-11-29T22:52:03.513Z,100.00
2022-11-29T22:54:29.892Z,100.00
2022-11-29T22:56:56.338Z,100.00
2022-11-29T22:59:22.713Z,100.00
2022-11-29T23:01:49.119Z,100.00
2022-11-29T23:04:15.740Z,100.00
2022-11-29T23:06:44.336Z,100.00
2022-11-29T23:09:16.536Z,100.00
2022-11-29T23:11:45.023Z,100.00
2022-11-29T23:14:12.184Z,100.00
2022-11-29T23:16:38.751Z,100.00
2022-11-29T23:19:05.202Z,100.00
2022-11-29T23:21:35.106Z,99.81
2022-11-29T23:24:02.295Z,99.86
2022-11-29T23:26:36.461Z,99.70
2022-11-29T23:29:03.935Z,98.06
2022-11-29T23:31:30.658Z,98.93
2022-11-29T23:33:57.083Z,98.03
2022-11-29T23:36:23.714Z,98.60
2022-11-29T23:38:50.064Z,98.16
2022-11-29T23:41:16.523Z,98.22
2022-11-29T23:43:43.179Z,98.28
2022-11-29T23:46:22.143Z,97.77
2022-11-29T23:48:48.917Z,97.64
2022-11-29T23:51:15.846Z,96.81
2022-11-29T23:53:42.823Z,97.34
2022-11-29T23:56:14.949Z,98.08
2022-11-29T23:58:41.893Z,96.97
